createdAt,value
2023-04-19T00:03:56.893Z,100571.56
2023-04-19T00:08:58.674Z,100565.59
2023-04-19T00:14:00.319Z,100565.09
2023-04-19T00:19:02.339Z,100549.38
2023-04-19T00:24:04.134Z,100553.31
2023-04-19T00:29:05.781Z,100549.94
2023-04-19T00:34:08.312Z,100548.53
2023-04-19T00:39:09.942Z,100550.50
2023-04-19T00:44:13.638Z,100544.88
2023-04-19T00:49:17.606Z,100537.97
2023-04-19T00:54:20.443Z,100535.00
2023-04-19T00:59:25.017Z,100522.69
2023-04-19T01:04:27.071Z,100525.50
2023-04-19T01:09:28.754Z,100519.31
2023-04-19T01:14:32.496Z,100510.63
2023-04-19T01:19:35.002Z,100517.50
2023-04-19T01:24:36.727Z,100508.78
2023-04-19T01:29:38.447Z,100515.41
2023-04-19T01:34:40.341Z,100507.38
2023-04-19T01:39:42.040Z,100508.09
2023-04-19T01:44:43.668Z,100512.16
2023-04-19T01:49:45.506Z,100503.00
2023-04-19T01:54:47.158Z,100496.22
2023-04-19T01:59:50.466Z,100504.00
2023-04-19T02:04:52.114Z,100504.72
2023-04-19T02:09:53.798Z,100496.81
2023-04-19T02:14:59.582Z,100492.03
2023-04-19T02:20:09.706Z,100491.47
2023-04-19T02:25:11.419Z,100481.72
2023-04-19T02:30:13.331Z,100486.97
2023-04-19T02:35:15.222Z,100488.22
2023-04-19T02:40:16.938Z,100483.16
2023-04-19T02:45:18.577Z,100474.13
2023-04-19T02:50:21.660Z,100473.72
2023-04-19T02:55:25.518Z,100482.03
2023-04-19T03:00:37.243Z,100476.25
2023-04-19T03:05:44.530Z,100474.56
2023-04-19T03:10:46.274Z,100466.22
2023-04-19T03:15:48.763Z,100460.72
2023-04-19T03:20:53.689Z,100457.06
2023-04-19T03:25:56.800Z,100453.81
2023-04-19T03:31:06.662Z,100443.47
2023-04-19T03:36:08.618Z,100438.03
2023-04-19T03:41:21.636Z,100429.53
2023-04-19T03:46:31.574Z,100424.19
2023-04-19T03:51:34.496Z,100424.34
2023-04-19T03:56:36.200Z,100424.75
2023-04-19T04:01:42.131Z,100425.31
2023-04-19T04:06:44.336Z,100413.72
2023-04-19T04:11:48.449Z,100422.88
2023-04-19T04:16:50.623Z,100418.97
2023-04-19T04:21:52.457Z,100421.47
2023-04-19T04:26:54.748Z,100429.91
2023-04-19T04:32:10.615Z,100435.16
2023-04-19T04:37:16.387Z,100430.03
2023-04-19T04:42:21.544Z,100430.72
2023-04-19T04:47:23.537Z,100423.41
2023-04-19T04:52:29.596Z,100425.38
2023-04-19T04:57:52.005Z,100432.38
2023-04-19T05:03:00.515Z,100432.25
2023-04-19T05:08:04.031Z,100423.09
2023-04-19T05:13:06.490Z,100427.44
2023-04-19T05:18:08.726Z,100424.59
2023-04-19T05:23:11.662Z,100426.38
2023-04-19T05:28:14.208Z,100429.41
2023-04-19T05:33:26.650Z,100425.69
2023-04-19T05:38:30.629Z,100433.88
2023-04-19T05:43:36.576Z,100436.41
2023-04-19T05:48:38.782Z,100429.50
2023-04-19T05:54:03.695Z,100427.91
2023-04-19T05:59:06.679Z,100443.84
2023-04-19T06:04:08.493Z,100435.22
2023-04-19T06:09:12.433Z,100444.13
2023-04-19T06:14:15.992Z,100438.53
2023-04-19T06:19:19.006Z,100438.59
2023-04-19T06:24:20.746Z,100447.00
2023-04-19T06:29:23.808Z,100446.47
2023-04-19T06:34:25.570Z,100442.34
2023-04-19T06:39:27.800Z,100434.56
2023-04-19T06:44:29.780Z,100439.78
2023-04-19T06:49:31.655Z,100446.56
2023-04-19T06:54:33.272Z,100442.31
2023-04-19T06:59:35.385Z,100430.84
2023-04-19T07:04:37.423Z,100430.91
2023-04-19T07:09:39.233Z,100422.47
2023-04-19T07:14:40.951Z,100411.28
2023-04-19T07:19:42.575Z,100394.16
2023-04-19T07:24:44.667Z,100386.78
2023-04-19T07:29:46.832Z,100385.00
2023-04-19T07:34:48.497Z,100383.63
2023-04-19T07:39:50.151Z,100379.41
2023-04-19T07:44:51.970Z,100372.78
2023-04-19T07:49:53.850Z,100377.75
2023-04-19T07:54:55.769Z,100366.22
2023-04-19T07:59:59.307Z,100369.13
2023-04-19T08:05:02.424Z,100369.41
2023-04-19T08:10:05.787Z,100356.41
2023-04-19T08:20:13.124Z,100359.06
2023-04-19T08:25:14.782Z,100346.88
2023-04-19T08:30:16.568Z,100335.94
2023-04-19T08:35:18.259Z,100336.69
2023-04-19T08:40:20.082Z,100331.00
2023-04-19T08:45:28.650Z,100327.53
2023-04-19T08:50:35.895Z,100327.41
2023-04-19T08:56:06.906Z,100321.97
2023-04-19T09:01:15.038Z,100308.94
2023-04-19T09:06:28.465Z,100317.59
2023-04-19T09:11:40.165Z,100296.03
2023-04-19T09:16:43.043Z,100295.53
2023-04-19T09:21:44.770Z,100290.22
2023-04-19T09:26:57.849Z,100277.00
2023-04-19T09:32:00.089Z,100274.69
2023-04-19T09:37:21.501Z,100268.53
2023-04-19T09:43:04.365Z,100261.00
2023-04-19T09:48:08.214Z,100268.97
2023-04-19T09:53:10.942Z,100267.59
2023-04-19T09:58:12.656Z,100263.22
2023-04-19T10:03:16.181Z,100255.28
2023-04-19T10:08:20.224Z,100253.38
2023-04-19T10:13:26.732Z,100237.22
2023-04-19T10:18:29.704Z,100233.19
2023-04-19T10:23:32.720Z,100216.00
2023-04-19T10:28:36.245Z,100207.22
2023-04-19T10:33:39.294Z,100210.66
2023-04-19T10:38:47.305Z,100211.53
2023-04-19T10:44:10.602Z,100214.16
2023-04-19T10:49:13.734Z,100205.38
2023-04-19T10:54:31.553Z,100216.63
2023-04-19T10:59:38.233Z,100212.25
2023-04-19T11:04:49.012Z,100209.72
2023-04-19T11:09:51.925Z,100197.13
2023-04-19T11:14:57.705Z,100194.94
2023-04-19T11:20:09.407Z,100178.63
2023-04-19T11:25:21.911Z,100185.09
2023-04-19T11:30:29.607Z,100171.75
2023-04-19T11:35:31.506Z,100154.72
2023-04-19T11:40:33.469Z,100145.84
2023-04-19T11:45:39.664Z,100163.69
2023-04-19T11:50:43.870Z,100169.28
2023-04-19T11:55:47.792Z,100163.56
2023-04-19T12:00:49.445Z,100159.03
2023-04-19T12:05:59.075Z,100155.50
2023-04-19T12:11:03.164Z,100150.84
2023-04-19T12:16:05.425Z,100158.88
2023-04-19T12:21:07.207Z,100149.22
2023-04-19T12:26:08.866Z,100140.56
2023-04-19T12:31:10.591Z,100141.91
2023-04-19T12:36:12.696Z,100136.22
2023-04-19T12:41:15.585Z,100128.66
2023-04-19T12:46:17.321Z,100127.53
2023-04-19T12:51:18.955Z,100138.31
2023-04-19T12:56:21.358Z,100135.22
2023-04-19T13:01:23.668Z,100129.09
2023-04-19T13:06:26.102Z,100123.91
2023-04-19T13:11:27.741Z,100107.00
2023-04-19T13:16:29.494Z,100098.09
2023-04-19T13:21:31.396Z,100098.19
2023-04-19T13:26:34.441Z,100085.16
2023-04-19T13:31:36.173Z,100087.78
2023-04-19T13:36:37.844Z,100069.75
2023-04-19T13:41:39.508Z,100049.91
2023-04-19T13:46:41.156Z,100047.31
2023-04-19T13:51:50.230Z,100048.28
2023-04-19T13:56:52.719Z,100041.59
2023-04-19T14:01:56.129Z,100030.78
2023-04-19T14:06:57.866Z,100035.28
2023-04-19T14:12:00.177Z,100072.41
2023-04-19T14:17:01.977Z,100086.91
2023-04-19T14:22:03.658Z,100098.59
2023-04-19T14:27:11.115Z,100091.44
2023-04-19T14:32:25.030Z,100090.34
2023-04-19T14:37:28.538Z,100100.22
2023-04-19T14:42:30.164Z,100092.41
2023-04-19T14:47:31.808Z,100096.97
2023-04-19T14:52:33.553Z,100091.78
2023-04-19T14:57:36.041Z,100096.47
2023-04-19T15:02:37.938Z,100105.38
2023-04-19T15:07:39.701Z,100103.47
2023-04-19T15:12:41.355Z,100095.25
2023-04-19T15:17:43.411Z,100107.03
2023-04-19T15:22:45.189Z,100114.22
2023-04-19T15:27:46.797Z,100128.41
2023-04-19T15:32:48.549Z,100127.88
2023-04-19T15:37:50.174Z,100123.50
2023-04-19T15:42:51.832Z,100130.97
2023-04-19T15:47:53.588Z,100125.19
2023-04-19T15:52:55.309Z,100119.97
2023-04-19T15:57:57.058Z,100118.59
2023-04-19T16:02:58.922Z,100132.13
2023-04-19T16:08:11.630Z,100134.59
2023-04-19T16:13:13.662Z,100127.59
2023-04-19T16:18:15.545Z,100119.97
2023-04-19T16:23:17.242Z,100116.47
2023-04-19T16:28:19.840Z,100108.09
2023-04-19T16:33:21.573Z,100109.78
2023-04-19T16:38:23.240Z,100107.56
2023-04-19T16:43:24.900Z,100102.81
2023-04-19T16:48:27.094Z,100097.19
2023-04-19T16:53:28.716Z,100092.25
2023-04-19T16:58:30.968Z,100082.66
2023-04-19T17:03:32.938Z,100084.81
2023-04-19T17:08:34.892Z,100083.69
2023-04-19T17:13:37.751Z,100081.69
2023-04-19T17:18:39.398Z,100077.31
2023-04-19T17:23:40.997Z,100075.22
2023-04-19T17:28:42.646Z,100080.84
2023-04-19T17:33:44.327Z,100072.84
2023-04-19T17:38:45.961Z,100074.69
2023-04-19T17:43:50.581Z,100074.13
2023-04-19T17:48:52.253Z,100064.25
2023-04-19T17:53:53.886Z,100070.75
2023-04-19T17:58:55.576Z,100073.97
2023-04-19T18:03:57.391Z,100075.94
2023-04-19T18:08:59.214Z,100083.53
2023-04-19T18:14:00.846Z,100077.22
2023-04-19T18:19:02.509Z,100086.50
2023-04-19T18:24:04.450Z,100083.69
2023-04-19T18:29:06.207Z,100079.44
2023-04-19T18:34:08.318Z,100078.88
2023-04-19T18:39:13.173Z,100082.03
2023-04-19T18:44:38.989Z,100079.06
2023-04-19T18:49:36.393Z,100093.16
2023-04-19T18:54:38.050Z,100087.47
2023-04-19T18:59:41.060Z,100092.97
2023-04-19T19:04:52.235Z,100088.16
2023-04-19T19:10:01.717Z,100089.50
2023-04-19T19:15:06.412Z,100085.25
2023-04-19T19:20:09.905Z,100093.41
2023-04-19T19:25:12.118Z,100088.75
2023-04-19T19:30:14.683Z,100090.38
2023-04-19T19:35:16.513Z,100091.50
2023-04-19T19:40:20.910Z,100093.03
2023-04-19T19:45:28.446Z,100087.34
2023-04-19T19:55:34.606Z,100083.78
2023-04-19T20:00:46.219Z,100065.31
2023-04-19T20:05:49.881Z,100076.25
2023-04-19T20:10:51.718Z,100081.50
2023-04-19T20:15:53.451Z,100073.13
2023-04-19T20:20:55.065Z,100075.31
2023-04-19T20:25:57.498Z,100071.47
2023-04-19T20:30:59.108Z,100066.09
2023-04-19T20:36:01.899Z,100066.88
2023-04-19T20:41:03.578Z,100074.94
2023-04-19T20:46:06.997Z,100079.09
2023-04-19T20:51:08.743Z,100078.25
2023-04-19T20:56:10.458Z,100074.78
2023-04-19T21:01:14.385Z,100065.00
2023-04-19T21:06:16.004Z,100073.25
2023-04-19T21:11:17.676Z,100072.66
2023-04-19T21:16:19.324Z,100067.00
2023-04-19T21:21:20.980Z,100072.59
2023-04-19T21:26:22.615Z,100069.88
2023-04-19T21:31:24.247Z,100072.00
2023-04-19T21:36:26.657Z,100072.19
2023-04-19T21:41:28.320Z,100068.94
2023-04-19T21:46:29.984Z,100067.19
2023-04-19T21:51:32.104Z,100069.91
2023-04-19T21:56:33.778Z,100071.50
2023-04-19T22:01:35.399Z,100069.25
2023-04-19T22:06:37.238Z,100081.47
2023-04-19T22:11:39.151Z,100074.28
2023-04-19T22:16:42.270Z,100073.47
2023-04-19T22:21:43.972Z,100065.22
2023-04-19T22:26:45.757Z,100062.84
2023-04-19T22:31:47.534Z,100066.53
2023-04-19T22:36:49.254Z,100070.44
2023-04-19T22:41:50.864Z,100059.91
2023-04-19T22:46:52.493Z,100063.06
2023-04-19T22:51:54.984Z,100061.94
2023-04-19T22:56:56.795Z,100057.75
2023-04-19T23:01:58.435Z,100059.78
2023-04-19T23:07:00.105Z,100061.34
2023-04-19T23:12:02.128Z,100062.03
2023-04-19T23:17:03.744Z,100049.78
2023-04-19T23:22:05.388Z,100056.81
2023-04-19T23:27:07.048Z,100059.16
2023-04-19T23:32:08.648Z,100054.06
2023-04-19T23:37:11.998Z,100062.16
2023-04-19T23:42:14.564Z,100061.59
2023-04-19T23:47:16.349Z,100056.75
2023-04-19T23:52:18.301Z,100059.16
2023-04-19T23:57:19.956Z,100052.50
